Bonsall, California
Current Conditions -  °F | °C
As of 5:15 AM on Tuesday 21 Oct 2014 (Local Time) from KL18 Reporting Station
Overcast Overcast  
Wind Chill: 63°   Ceiling: 900
Heat Index: 63°   Visibility: 10mi
Dew Point: 59°   Wind: 3mph
Humidity: 88%   Direction: 90°E
Pressure: 29.89"   Gusts: NA
Location:  33.29°N, 117.23°W
Report Text: KL18 211215Z AUTO 09003KT 10SM OVC009 17/15 A2989 RMK AO2
Loading
Personal Weather Stations






























Interactive Weather Map
Tropical Storm Tracking
New forecast layout! Learn more

10-Day Weather Forecast

Advertisements
Track Severe Weather on mobile